Portada
METAR-TAF:

METAR-TAF

Aeroports :

Rafha, Aràbia Saudita

latitud: 29-37N, longitud: 043-29E, altitud: 449 m

Observació

L'informe es va fer fa 1 hora i 17 minuts, a les 22:00 UTC
Vent 8 kt del Est/Nord-Est
Temperatura 21°C
Humitat 17%
Pressió 1017 hPa
Visibilitat 10 km o més
sense núvols per sota de 1500 mi sense presència de cumulonimbus.

METAR: OERF 152200Z 07008KT CAVOK 21/M05 Q1017 NOSIG

Hora: 02:17 (23:17 UTC)

Pronòstic

L'informe es va fer fa 12 hores i 17 minuts, a les 11:00 UTC
Pronòstic vàlid del 15 a les 12 UTC al 16 a les 18 UTC
Vent 14 kt del Est/Nord-Est
Visibilitat 10 km o més
sense núvols per sota de 1500 mi sense presència de cumulonimbus.
Evolucionant progressivament
l' 15 a les 20 UTC al 15 a les 22 UTC
Vent 3 kt amb direcció variable

TAF: OERF 151100Z 1512/1618 06014KT CAVOK BECMG 1520/1522 VRB03KT

Observacions i pronòstics meteorològics de més de 4000 aeroports (METAR i TAF).

Les estacions disponibles són els punts grocs i vermells al mapa.

Posi el ratolí al punt desitjat per veure el nom de l'estació.

Feu clic per veure les observacions i els pronòstics meteorològics.

Per canviar el mapa: feu clic els botons verds amb una creu de color negre per apropar; al botó verd amb un guió per allunyar la imatge; o en les fletxes verdes per a mapes adjacents.


METAR-TAF: